Time;durP1;ratioP1;P1;durP2;ratioP2;P2;SDS_P1;SDS_P2;PMS_P1;PMS_P2;Temp;Humidity;BMP_temperature;BMP_pressure;BME280_temperature;BME280_humidity;BME280_pressure;Samples;Min_cycle;Max_cycle;Signal;HPM_P1;HPM_P2
2021/06/01 00:00:14;;;;;;;28.87;19.07;;;;;;;;;;5054844;28;20175;-80
2021/06/01 00:02:39;;;;;;;27.77;18.43;;;;;;;;;;5054981;28;20171;-80
2021/06/01 00:05:06;;;;;;;29.17;18.60;;;;;;;;;;5054792;28;20246;-80
2021/06/01 00:07:31;;;;;;;24.10;17.67;;;;;;;;;;5055463;28;20183;-80
2021/06/01 00:09:57;;;;;;;28.40;18.23;;;;;;;;;;5054879;28;20203;-80
2021/06/01 00:12:22;;;;;;;22.23;16.67;;;;;;;;;;5055137;28;20164;-80
2021/06/01 00:14:47;;;;;;;25.37;17.53;;;;;;;;;;5054734;28;20258;-80
2021/06/01 00:17:13;;;;;;;26.70;17.57;;;;;;;;;;5054959;28;20191;-82
2021/06/01 00:19:38;;;;;;;26.50;17.40;;;;;;;;;;5054683;28;20526;-82
2021/06/01 00:22:03;;;;;;;27.33;17.57;;;;;;;;;;5054395;28;20646;-82
2021/06/01 00:24:29;;;;;;;29.13;16.87;;;;;;;;;;5054277;28;20175;-82
2021/06/01 00:26:54;;;;;;;23.53;16.23;;;;;;;;;;5054372;28;20171;-82
2021/06/01 00:29:19;;;;;;;24.53;16.47;;;;;;;;;;5054318;28;20203;-82
2021/06/01 00:31:45;;;;;;;26.90;17.13;;;;;;;;;;5055329;28;20172;-82
2021/06/01 00:34:11;;;;;;;25.87;16.27;;;;;;;;;;5054075;28;20615;-82
2021/06/01 00:36:36;;;;;;;28.33;17.03;;;;;;;;;;5054257;28;20199;-82
2021/06/01 00:39:02;;;;;;;24.27;16.27;;;;;;;;;;5054356;28;20247;-82
2021/06/01 00:41:27;;;;;;;22.10;15.53;;;;;;;;;;5054316;28;20171;-82
2021/06/01 00:43:53;;;;;;;24.13;14.57;;;;;;;;;;5053334;28;20198;-82
2021/06/01 00:46:18;;;;;;;23.53;16.30;;;;;;;;;;5054008;28;20231;-82
2021/06/01 00:48:43;;;;;;;25.93;16.53;;;;;;;;;;5054482;28;20171;-82
2021/06/01 00:51:09;;;;;;;22.37;16.20;;;;;;;;;;5054159;28;20657;-82
2021/06/01 00:53:36;;;;;;;21.97;15.70;;;;;;;;;;5053786;28;20176;-82
2021/06/01 00:56:03;;;;;;;19.77;15.37;;;;;;;;;;5053861;28;20168;-82
2021/06/01 00:58:28;;;;;;;21.93;15.17;;;;;;;;;;5054076;28;20168;-82
2021/06/01 01:01:11;;;;;;;23.70;15.67;;;;;;;;;;5054068;28;20226;-82
2021/06/01 01:03:37;;;;;;;21.47;14.47;;;;;;;;;;5054388;28;20168;-82
2021/06/01 01:06:05;;;;;;;24.27;15.10;;;;;;;;;;5053944;28;20614;-81
2021/06/01 01:08:49;;;;;;;18.63;14.63;;;;;;;;;;5053785;28;20186;-81
2021/06/01 01:11:24;;;;;;;20.63;14.80;;;;;;;;;;5054162;28;20178;-81
2021/06/01 01:13:53;;;;;;;23.37;15.67;;;;;;;;;;5054075;28;20214;-81
2021/06/01 01:16:20;;;;;;;24.53;15.90;;;;;;;;;;5054325;28;20179;-81
2021/06/01 01:18:48;;;;;;;25.33;17.30;;;;;;;;;;5053474;28;20177;-81
2021/06/01 01:21:23;;;;;;;25.47;16.77;;;;;;;;;;5053836;28;20168;-81
2021/06/01 01:24:07;;;;;;;24.57;16.53;;;;;;;;;;5054049;28;20176;-80
2021/06/01 01:26:55;;;;;;;24.50;15.80;;;;;;;;;;5053969;28;20168;-81
2021/06/01 01:29:40;;;;;;;26.57;17.40;;;;;;;;;;5050295;28;20220;-81
2021/06/01 01:32:08;;;;;;;24.30;16.33;;;;;;;;;;5053675;28;20641;-81
2021/06/01 01:34:34;;;;;;;24.03;16.83;;;;;;;;;;5053867;28;20171;-81
2021/06/01 01:37:00;;;;;;;23.33;16.67;;;;;;;;;;5053556;28;20249;-81
2021/06/01 01:39:27;;;;;;;25.50;16.20;;;;;;;;;;5053726;28;20174;-81
2021/06/01 01:41:53;;;;;;;23.70;17.33;;;;;;;;;;5053572;28;20181;-81
2021/06/01 01:44:22;;;;;;;25.80;15.77;;;;;;;;;;5053790;28;20164;-81
2021/06/01 01:46:59;;;;;;;23.57;16.07;;;;;;;;;;5053430;28;20241;-80
2021/06/01 01:49:25;;;;;;;20.80;15.33;;;;;;;;;;5053314;28;20196;-80
2021/06/01 01:51:57;;;;;;;21.57;15.77;;;;;;;;;;5052184;28;20182;-80
2021/06/01 01:54:23;;;;;;;23.93;15.70;;;;;;;;;;5055432;28;20500;-81
2021/06/01 01:56:53;;;;;;;25.83;16.50;;;;;;;;;;5057429;28;20178;-79
2021/06/01 01:59:20;;;;;;;21.77;15.47;;;;;;;;;;5057409;28;20175;-80
2021/06/01 02:01:50;;;;;;;23.97;15.87;;;;;;;;;;5057300;28;20179;-80
2021/06/01 02:04:17;;;;;;;23.20;15.83;;;;;;;;;;5057084;28;20523;-80
2021/06/01 02:06:42;;;;;;;21.73;15.47;;;;;;;;;;5057500;28;20662;-80
2021/06/01 02:09:08;;;;;;;22.77;15.73;;;;;;;;;;5056850;28;20287;-80
2021/06/01 02:11:33;;;;;;;21.53;15.30;;;;;;;;;;5055715;28;20175;-80
2021/06/01 02:14:02;;;;;;;17.70;13.53;;;;;;;;;;5057081;28;20202;-80
2021/06/01 02:16:28;;;;;;;21.67;14.97;;;;;;;;;;5057052;28;20180;-80
2021/06/01 02:18:53;;;;;;;21.87;15.13;;;;;;;;;;5057845;28;20205;-80
2021/06/01 02:24:30;;;;;;;17.07;13.70;;;;;;;;;;5056912;28;20198;-80
2021/06/01 02:27:14;;;;;;;20.23;14.40;;;;;;;;;;5056449;28;20661;-80
2021/06/01 02:29:42;;;;;;;19.43;13.70;;;;;;;;;;5056987;28;20199;-80
2021/06/01 02:32:08;;;;;;;19.07;14.33;;;;;;;;;;5056727;28;20172;-80
2021/06/01 02:34:37;;;;;;;20.30;15.17;;;;;;;;;;5056717;28;20176;-80
2021/06/01 02:37:02;;;;;;;21.73;14.70;;;;;;;;;;5056690;28;20190;-80
2021/06/01 02:39:28;;;;;;;21.50;14.97;;;;;;;;;;5056866;28;20202;-81
2021/06/01 02:41:54;;;;;;;19.77;14.03;;;;;;;;;;5056775;28;20178;-81
2021/06/01 02:44:19;;;;;;;19.77;14.47;;;;;;;;;;5056189;28;20170;-81
2021/06/01 02:46:46;;;;;;;17.87;14.27;;;;;;;;;;5056525;28;20235;-81
2021/06/01 02:49:11;;;;;;;18.13;14.33;;;;;;;;;;5056030;28;20238;-82
2021/06/01 02:51:37;;;;;;;20.17;14.90;;;;;;;;;;5056063;28;20207;-82
2021/06/01 02:54:04;;;;;;;20.17;14.10;;;;;;;;;;5056920;28;20179;-81
2021/06/01 02:56:30;;;;;;;22.30;14.53;;;;;;;;;;5056006;28;20168;-81
2021/06/01 02:58:56;;;;;;;20.63;15.00;;;;;;;;;;5056744;28;20256;-82
2021/06/01 03:01:24;;;;;;;19.70;13.87;;;;;;;;;;5055911;28;20565;-82
2021/06/01 03:03:50;;;;;;;21.47;16.07;;;;;;;;;;5056637;28;20247;-81
2021/06/01 03:06:17;;;;;;;19.20;16.23;;;;;;;;;;5055257;28;20172;-81
2021/06/01 03:08:42;;;;;;;23.70;16.43;;;;;;;;;;5056383;28;20183;-81
2021/06/01 03:11:08;;;;;;;20.70;16.57;;;;;;;;;;5055676;28;20203;-81
2021/06/01 03:13:33;;;;;;;22.27;16.33;;;;;;;;;;5056415;28;20261;-81
2021/06/01 03:15:59;;;;;;;21.67;16.40;;;;;;;;;;5055850;28;20622;-81
2021/06/01 03:18:24;;;;;;;20.77;15.30;;;;;;;;;;5055866;28;20175;-81
2021/06/01 03:20:50;;;;;;;16.53;14.40;;;;;;;;;;5055881;28;20578;-81
2021/06/01 03:23:16;;;;;;;19.03;14.70;;;;;;;;;;5056335;28;20567;-81
2021/06/01 03:25:41;;;;;;;19.70;14.90;;;;;;;;;;5055674;28;20178;-81
2021/06/01 03:28:07;;;;;;;19.80;14.73;;;;;;;;;;5056272;28;20254;-81
2021/06/01 03:30:33;;;;;;;19.00;13.47;;;;;;;;;;5055792;28;20622;-80
2021/06/01 03:32:58;;;;;;;18.30;13.73;;;;;;;;;;5055622;28;20172;-80
2021/06/01 03:35:25;;;;;;;19.20;14.47;;;;;;;;;;5055566;28;20182;-80
2021/06/01 03:37:50;;;;;;;20.63;14.07;;;;;;;;;;5055704;28;20201;-80
2021/06/01 03:40:16;;;;;;;17.57;14.40;;;;;;;;;;5055171;28;20584;-80
2021/06/01 03:42:41;;;;;;;21.53;16.83;;;;;;;;;;5056232;28;20175;-80
2021/06/01 03:45:07;;;;;;;20.73;15.90;;;;;;;;;;5055355;28;20176;-80
2021/06/01 03:47:32;;;;;;;21.63;17.20;;;;;;;;;;5055511;28;20310;-80
2021/06/01 03:49:57;;;;;;;24.93;20.20;;;;;;;;;;5055295;28;20199;-80
2021/06/01 03:52:23;;;;;;;28.77;21.70;;;;;;;;;;5055850;28;20204;-80
2021/06/01 03:54:48;;;;;;;34.50;25.83;;;;;;;;;;5054882;28;20164;-80
2021/06/01 03:57:13;;;;;;;35.13;28.00;;;;;;;;;;5055372;28;20167;-80
2021/06/01 03:59:39;;;;;;;41.73;31.10;;;;;;;;;;5055310;28;20571;-80
2021/06/01 04:02:05;;;;;;;47.60;36.50;;;;;;;;;;5055041;28;20176;-80
2021/06/01 04:04:30;;;;;;;56.70;42.30;;;;;;;;;;5054966;28;20518;-82
2021/06/01 04:06:55;;;;;;;66.50;48.90;;;;;;;;;;5055249;28;20175;-82
2021/06/01 04:09:21;;;;;;;72.30;50.77;;;;;;;;;;5054884;28;20195;-81
2021/06/01 04:11:46;;;;;;;61.53;47.47;;;;;;;;;;5055131;28;20172;-82
2021/06/01 04:14:11;;;;;;;52.90;42.03;;;;;;;;;;5066640;28;20178;-80
2021/06/01 04:16:37;;;;;;;61.77;47.00;;;;;;;;;;5070843;28;20237;-80
2021/06/01 04:19:02;;;;;;;52.57;42.23;;;;;;;;;;5062815;28;20262;-81
2021/06/01 04:21:28;;;;;;;38.53;32.37;;;;;;;;;;5054564;28;20625;-82
2021/06/01 04:23:53;;;;;;;30.03;24.13;;;;;;;;;;5054889;28;20172;-82
2021/06/01 04:26:19;;;;;;;22.05;19.73;;;;;;;;;;5054700;28;20298;-82
2021/06/01 04:28:44;;;;;;;22.30;16.58;;;;;;;;;;5054372;28;20168;-82
2021/06/01 04:31:09;;;;;;;18.60;15.75;;;;;;;;;;5054617;28;20294;-82
2021/06/01 04:33:34;;;;;;;16.98;12.80;;;;;;;;;;5054535;28;20179;-82
2021/06/01 04:36:00;;;;;;;13.48;12.25;;;;;;;;;;5054954;28;20614;-82
2021/06/01 04:38:26;;;;;;;12.25;11.07;;;;;;;;;;5054304;28;20257;-83
2021/06/01 04:40:51;;;;;;;11.48;10.38;;;;;;;;;;5054110;28;20258;-81
2021/06/01 04:43:16;;;;;;;11.38;9.88;;;;;;;;;;5054604;28;20179;-81
2021/06/01 04:45:42;;;;;;;11.63;10.52;;;;;;;;;;5054015;28;20172;-83
2021/06/01 04:48:07;;;;;;;10.70;9.65;;;;;;;;;;5053890;28;20240;-84
2021/06/01 04:50:32;;;;;;;13.32;9.40;;;;;;;;;;5054730;28;20253;-84
2021/06/01 04:52:58;;;;;;;10.20;9.07;;;;;;;;;;5054720;28;20175;-81
2021/06/01 04:55:23;;;;;;;9.65;8.70;;;;;;;;;;5054127;28;20160;-81
2021/06/01 04:57:48;;;;;;;10.18;8.80;;;;;;;;;;5054046;28;20172;-82
2021/06/01 05:00:14;;;;;;;10.60;9.57;;;;;;;;;;5053657;28;20178;-82
2021/06/01 05:02:39;;;;;;;11.77;10.57;;;;;;;;;;5054039;28;20164;-82
2021/06/01 05:05:05;;;;;;;11.63;10.63;;;;;;;;;;5054136;28;20167;-82
2021/06/01 05:07:30;;;;;;;17.20;15.60;;;;;;;;;;5053899;28;20168;-81
2021/06/01 05:10:00;;;;;;;15.90;14.07;;;;;;;;;;5054130;28;20210;-82
2021/06/01 05:12:26;;;;;;;16.02;13.40;;;;;;;;;;5053589;28;20168;-81
2021/06/01 05:14:51;;;;;;;13.32;11.55;;;;;;;;;;5054305;28;20221;-82
2021/06/01 05:17:17;;;;;;;11.82;9.82;;;;;;;;;;5054109;28;20171;-82
2021/06/01 05:19:42;;;;;;;10.63;9.55;;;;;;;;;;5053411;28;20175;-82
2021/06/01 05:22:07;;;;;;;10.15;9.18;;;;;;;;;;5053590;28;20206;-82
2021/06/01 05:24:32;;;;;;;10.23;9.30;;;;;;;;;;5053847;28;20293;-83
2021/06/01 05:26:58;;;;;;;9.68;8.77;;;;;;;;;;5054337;28;20258;-83
2021/06/01 05:29:24;;;;;;;9.05;8.25;;;;;;;;;;5055575;28;20640;-83
2021/06/01 05:34:14;;;;;;;10.02;7.90;;;;;;;;;;5057725;28;20171;-83
2021/06/01 05:36:40;;;;;;;9.50;7.45;;;;;;;;;;5057985;28;20198;-83
2021/06/01 05:39:07;;;;;;;8.13;7.38;;;;;;;;;;5057631;28;20622;-83
2021/06/01 05:41:32;;;;;;;7.22;6.53;;;;;;;;;;5058069;28;20225;-83
2021/06/01 05:43:57;;;;;;;6.53;5.80;;;;;;;;;;5056417;28;20167;-83
2021/06/01 05:46:23;;;;;;;6.05;5.45;;;;;;;;;;5057236;28;20680;-83
2021/06/01 05:48:48;;;;;;;5.82;5.32;;;;;;;;;;5057911;28;20251;-83
2021/06/01 05:51:14;;;;;;;5.28;4.75;;;;;;;;;;5057513;28;20630;-83
2021/06/01 05:53:39;;;;;;;4.90;4.50;;;;;;;;;;5055201;28;20176;-84
2021/06/01 05:56:05;;;;;;;5.32;4.90;;;;;;;;;;5052133;28;20270;-83
2021/06/01 05:58:30;;;;;;;5.47;5.07;;;;;;;;;;5057319;28;20167;-84
2021/06/01 06:00:55;;;;;;;4.80;4.35;;;;;;;;;;5057204;28;20207;-85
2021/06/01 06:03:22;;;;;;;4.50;4.10;;;;;;;;;;5057341;28;20199;-84
2021/06/01 06:05:48;;;;;;;5.60;4.72;;;;;;;;;;5054787;28;20175;-84
2021/06/01 06:08:15;;;;;;;5.13;4.72;;;;;;;;;;5056976;28;20172;-83
2021/06/01 06:10:41;;;;;;;4.70;4.30;;;;;;;;;;5050968;28;20184;-86
2021/06/01 06:13:07;;;;;;;6.05;4.15;;;;;;;;;;5056899;28;20179;-84
2021/06/01 06:15:32;;;;;;;5.43;4.38;;;;;;;;;;5057421;28;20637;-82
2021/06/01 06:18:06;;;;;;;6.15;3.78;;;;;;;;;;5056211;28;20635;-83
2021/06/01 06:20:33;;;;;;;4.30;3.90;;;;;;;;;;5057069;28;20206;-83
2021/06/01 06:22:58;;;;;;;4.03;3.72;;;;;;;;;;5056832;28;20171;-83
2021/06/01 06:25:23;;;;;;;4.28;3.88;;;;;;;;;;5056704;28;20199;-83
2021/06/01 06:27:49;;;;;;;5.88;4.20;;;;;;;;;;5056466;28;20172;-84
2021/06/01 06:30:15;;;;;;;4.18;3.78;;;;;;;;;;5056786;28;20186;-85
2021/06/01 06:32:40;;;;;;;5.65;4.47;;;;;;;;;;5056502;28;20681;-84
2021/06/01 06:35:07;;;;;;;4.97;4.07;;;;;;;;;;5056591;28;20179;-84
2021/06/01 06:37:32;;;;;;;5.45;3.92;;;;;;;;;;5056850;28;20272;-84
2021/06/01 06:39:57;;;;;;;4.05;3.75;;;;;;;;;;5056419;28;20282;-84
2021/06/01 06:42:23;;;;;;;4.65;4.20;;;;;;;;;;5056602;28;20180;-84
2021/06/01 06:44:50;;;;;;;5.15;3.80;;;;;;;;;;5056218;28;20176;-84
2021/06/01 06:47:22;;;;;;;6.30;4.20;;;;;;;;;;5056398;28;20310;-84
2021/06/01 06:49:48;;;;;;;4.13;3.72;;;;;;;;;;5056374;28;20301;-83
2021/06/01 06:52:13;;;;;;;4.50;3.97;;;;;;;;;;5056595;28;20254;-84
2021/06/01 06:54:39;;;;;;;5.93;4.55;;;;;;;;;;5056314;28;20168;-84
2021/06/01 06:57:05;;;;;;;4.47;3.97;;;;;;;;;;5055517;28;20515;-84
2021/06/01 06:59:30;;;;;;;5.10;4.28;;;;;;;;;;5055950;28;20202;-84
2021/06/01 07:01:55;;;;;;;6.68;4.35;;;;;;;;;;5055736;28;20168;-84
2021/06/01 07:04:21;;;;;;;4.45;4.10;;;;;;;;;;5056127;28;20195;-83
2021/06/01 07:06:47;;;;;;;8.20;4.28;;;;;;;;;;5055650;28;20199;-83
2021/06/01 07:09:13;;;;;;;4.30;3.90;;;;;;;;;;5055858;28;20207;-83
2021/06/01 07:11:38;;;;;;;5.45;4.28;;;;;;;;;;5055889;28;20172;-84
2021/06/01 07:14:07;;;;;;;7.30;4.25;;;;;;;;;;5055524;28;20190;-83
2021/06/01 07:16:32;;;;;;;5.10;4.10;;;;;;;;;;5055838;28;20221;-83
2021/06/01 07:18:57;;;;;;;4.68;3.72;;;;;;;;;;5055422;28;20168;-84
2021/06/01 07:21:23;;;;;;;4.45;4.00;;;;;;;;;;5055671;28;20190;-83
2021/06/01 07:23:48;;;;;;;5.88;3.83;;;;;;;;;;5055435;28;20164;-84
2021/06/01 07:26:14;;;;;;;12.00;3.90;;;;;;;;;;5055356;28;20172;-83
2021/06/01 07:28:39;;;;;;;4.50;3.70;;;;;;;;;;5055589;28;20160;-84
2021/06/01 07:31:05;;;;;;;3.75;3.33;;;;;;;;;;5055275;28;20565;-84
2021/06/01 07:33:31;;;;;;;3.65;3.35;;;;;;;;;;5055240;28;20159;-85
2021/06/01 07:35:56;;;;;;;3.80;3.50;;;;;;;;;;5055380;28;20249;-85
2021/06/01 07:38:21;;;;;;;10.68;4.70;;;;;;;;;;5054574;28;20538;-85
2021/06/01 07:40:47;;;;;;;12.02;4.85;;;;;;;;;;5055425;28;20204;-85
2021/06/01 07:43:12;;;;;;;5.68;3.90;;;;;;;;;;5055205;28;20164;-85
2021/06/01 07:45:37;;;;;;;6.68;4.15;;;;;;;;;;5055470;28;20175;-85
2021/06/01 07:48:03;;;;;;;6.40;3.78;;;;;;;;;;5055259;28;20238;-85
2021/06/01 07:50:29;;;;;;;4.82;3.70;;;;;;;;;;5055265;28;20229;-84
2021/06/01 07:52:54;;;;;;;9.00;4.22;;;;;;;;;;5054673;28;20251;-85
2021/06/01 07:55:20;;;;;;;7.18;3.80;;;;;;;;;;5053839;28;20175;-84
2021/06/01 07:57:45;;;;;;;8.82;4.05;;;;;;;;;;5055402;28;20207;-84
2021/06/01 08:00:11;;;;;;;7.18;3.67;;;;;;;;;;5055071;28;20216;-85
2021/06/01 08:02:36;;;;;;;6.47;3.55;;;;;;;;;;5055035;28;20541;-85
2021/06/01 08:05:02;;;;;;;4.60;3.80;;;;;;;;;;5055211;28;20517;-85
2021/06/01 08:07:27;;;;;;;19.50;6.00;;;;;;;;;;5054937;28;20610;-84
2021/06/01 08:09:52;;;;;;;9.13;4.30;;;;;;;;;;5054506;28;20172;-83
2021/06/01 08:12:18;;;;;;;8.90;4.40;;;;;;;;;;5054574;28;20529;-83
2021/06/01 08:14:43;;;;;;;6.70;4.25;;;;;;;;;;5053486;28;20176;-83
2021/06/01 08:17:09;;;;;;;5.13;3.90;;;;;;;;;;5053428;28;20178;-83
2021/06/01 08:19:39;;;;;;;4.47;3.90;;;;;;;;;;5051232;28;20295;-84
2021/06/01 08:22:19;;;;;;;7.15;3.72;;;;;;;;;;5052212;28;20263;-84
2021/06/01 08:24:45;;;;;;;6.32;3.97;;;;;;;;;;5051368;28;20197;-83
2021/06/01 08:27:10;;;;;;;7.03;3.80;;;;;;;;;;5051461;28;20589;-84
2021/06/01 08:29:36;;;;;;;4.55;3.30;;;;;;;;;;5053304;28;20164;-83
2021/06/01 08:32:01;;;;;;;4.22;3.83;;;;;;;;;;5053207;28;20172;-84
2021/06/01 08:34:27;;;;;;;5.20;3.80;;;;;;;;;;5054331;28;20185;-84
2021/06/01 08:36:53;;;;;;;5.25;4.00;;;;;;;;;;5053226;28;20238;-84
2021/06/01 08:39:25;;;;;;;6.53;3.42;;;;;;;;;;5054478;28;20287;-84
2021/06/01 08:41:51;;;;;;;3.55;3.25;;;;;;;;;;5054345;28;20164;-84
2021/06/01 08:44:16;;;;;;;3.50;3.20;;;;;;;;;;5053689;28;20174;-84
2021/06/01 08:46:42;;;;;;;6.03;3.30;;;;;;;;;;5052595;28;20595;-84
2021/06/01 08:49:12;;;;;;;3.88;2.90;;;;;;;;;;5054075;28;20191;-84
2021/06/01 08:51:38;;;;;;;3.33;2.83;;;;;;;;;;5054175;28;20171;-84
2021/06/01 08:54:03;;;;;;;3.30;3.10;;;;;;;;;;5053843;28;20168;-84
2021/06/01 08:56:28;;;;;;;3.60;2.97;;;;;;;;;;5054029;28;20179;-84
2021/06/01 08:58:54;;;;;;;13.38;5.65;;;;;;;;;;5053877;28;20557;-84
2021/06/01 09:01:20;;;;;;;8.25;4.82;;;;;;;;;;5053855;28;20600;-84
2021/06/01 09:03:50;;;;;;;4.82;3.72;;;;;;;;;;5053155;28;20190;-84
2021/06/01 09:06:29;;;;;;;3.63;3.33;;;;;;;;;;5053720;28;20186;-84
2021/06/01 09:22:29;;;;;;;3.65;3.20;;;;;;;;;;5035940;28;20172;-84
2021/06/01 09:25:00;;;;;;;4.53;3.40;;;;;;;;;;5033166;28;20207;-84
2021/06/01 09:27:29;;;;;;;3.80;3.50;;;;;;;;;;5051935;28;20195;-84
2021/06/01 09:29:55;;;;;;;7.97;6.82;;;;;;;;;;5051817;28;20168;-83
2021/06/01 09:32:22;;;;;;;4.38;4.00;;;;;;;;;;5052847;28;20160;-84
2021/06/01 09:34:50;;;;;;;3.83;3.40;;;;;;;;;;5041673;28;20180;-84
2021/06/01 09:37:21;;;;;;;4.10;3.60;;;;;;;;;;5033807;28;20199;-83
2021/06/01 09:40:05;;;;;;;3.75;3.45;;;;;;;;;;5033580;28;20192;-83
2021/06/01 09:42:32;;;;;;;4.10;3.70;;;;;;;;;;5033669;28;20263;-83
2021/06/01 09:45:05;;;;;;;4.25;3.53;;;;;;;;;;5033592;28;20181;-83
2021/06/01 09:47:42;;;;;;;4.82;3.47;;;;;;;;;;5046652;28;20223;-82
2021/06/01 09:50:13;;;;;;;5.97;4.32;;;;;;;;;;5052738;28;20178;-84
2021/06/01 09:52:49;;;;;;;5.05;3.38;;;;;;;;;;5052061;28;20615;-83
2021/06/01 09:55:15;;;;;;;3.80;3.47;;;;;;;;;;5053567;28;20171;-84
2021/06/01 09:57:44;;;;;;;4.60;3.50;;;;;;;;;;5053293;28;20525;-84
2021/06/01 10:00:13;;;;;;;3.88;3.58;;;;;;;;;;5053269;28;20325;-84
2021/06/01 10:02:39;;;;;;;6.80;3.75;;;;;;;;;;5053106;28;20225;-84
2021/06/01 10:05:15;;;;;;;4.10;3.80;;;;;;;;;;5052459;28;20258;-84
2021/06/01 10:07:41;;;;;;;3.63;3.40;;;;;;;;;;5052524;28;20525;-85
2021/06/01 10:10:17;;;;;;;3.55;3.25;;;;;;;;;;5053243;28;20176;-84
2021/06/01 10:12:50;;;;;;;3.95;3.58;;;;;;;;;;5052497;28;20656;-85
2021/06/01 10:15:17;;;;;;;3.85;3.40;;;;;;;;;;5052738;28;20167;-84
2021/06/01 10:17:43;;;;;;;11.93;4.13;;;;;;;;;;5054600;28;20588;-84
2021/06/01 10:20:09;;;;;;;5.53;3.70;;;;;;;;;;5055000;28;20200;-84
2021/06/01 10:22:34;;;;;;;4.30;3.70;;;;;;;;;;5054525;28;20183;-84
2021/06/01 10:25:00;;;;;;;4.32;3.80;;;;;;;;;;5055012;28;20179;-85
2021/06/01 10:27:26;;;;;;;4.22;3.28;;;;;;;;;;5054991;28;20680;-84
2021/06/01 10:29:52;;;;;;;3.47;3.10;;;;;;;;;;5054835;28;20262;-85
2021/06/01 10:32:18;;;;;;;3.55;2.90;;;;;;;;;;5053401;28;20275;-85
2021/06/01 10:34:44;;;;;;;3.20;3.00;;;;;;;;;;5055457;28;20250;-84
2021/06/01 10:42:44;;;;;;;3.13;2.88;;;;;;;;;;5056287;28;20194;-84
2021/06/01 10:53:06;;;;;;;5.28;3.20;;;;;;;;;;5056106;28;20333;-83
2021/06/01 10:56:02;;;;;;;4.35;3.95;;;;;;;;;;5056195;28;20163;-83
2021/06/01 10:58:32;;;;;;;3.75;3.42;;;;;;;;;;5055157;28;20187;-83
2021/06/01 11:06:46;;;;;;;4.47;3.30;;;;;;;;;;5055263;28;20692;-84
2021/06/01 11:09:30;;;;;;;3.47;3.17;;;;;;;;;;5054450;28;20183;-84
2021/06/01 11:11:55;;;;;;;3.95;3.20;;;;;;;;;;5055644;28;20174;-84
2021/06/01 11:14:27;;;;;;;3.85;3.30;;;;;;;;;;5055548;28;20250;-84
2021/06/01 11:16:54;;;;;;;4.50;2.75;;;;;;;;;;5049807;28;20230;-85
2021/06/01 11:19:22;;;;;;;4.07;3.08;;;;;;;;;;5036154;28;20269;-85
2021/06/01 11:21:58;;;;;;;4.97;2.70;;;;;;;;;;5043649;28;20270;-84
2021/06/01 11:35:11;;;;;;;3.58;3.28;;;;;;;;;;5055708;28;20175;-85
2021/06/01 11:37:46;;;;;;;5.18;3.58;;;;;;;;;;5055210;28;20191;-85
2021/06/01 11:40:27;;;;;;;3.67;3.38;;;;;;;;;;5049113;28;20221;-85
2021/06/01 11:43:09;;;;;;;4.25;3.40;;;;;;;;;;5038039;28;20173;-84
2021/06/01 11:45:40;;;;;;;4.53;4.22;;;;;;;;;;5034838;28;20165;-84
2021/06/01 11:48:10;;;;;;;3.95;3.65;;;;;;;;;;5034162;28;20239;-84
2021/06/01 11:53:19;;;;;;;5.65;3.90;;;;;;;;;;5035220;28;20697;-83
2021/06/01 11:55:46;;;;;;;7.03;6.32;;;;;;;;;;5035757;28;20226;-85
2021/06/01 12:03:53;;;;;;;8.35;7.65;;;;;;;;;;5054435;28;20221;-84
2021/06/01 12:12:08;;;;;;;4.75;3.55;;;;;;;;;;5054778;28;20175;-84
2021/06/01 12:17:50;;;;;;;5.68;3.33;;;;;;;;;;5054864;28;20166;-84
2021/06/01 12:20:15;;;;;;;4.00;3.60;;;;;;;;;;5054557;28;20548;-83
2021/06/01 12:22:41;;;;;;;5.30;3.60;;;;;;;;;;5054329;28;20180;-83
2021/06/01 12:25:09;;;;;;;3.80;3.33;;;;;;;;;;5052062;28;20266;-83
2021/06/01 12:27:51;;;;;;;4.22;3.28;;;;;;;;;;5037073;28;20180;-83
2021/06/01 12:33:08;;;;;;;4.30;3.45;;;;;;;;;;5038906;28;20330;-84
2021/06/01 12:43:52;;;;;;;3.97;3.40;;;;;;;;;;5034305;28;20255;-83
2021/06/01 13:06:23;;;;;;;8.75;4.63;;;;;;;;;;5034161;28;20168;-83
2021/06/01 13:08:46;;;;;;;5.22;4.20;;;;;;;;;;5034047;28;20627;-83
2021/06/01 13:22:41;;;;;;;3.90;3.60;;;;;;;;;;5034810;28;20169;-86
2021/06/01 13:30:40;;;;;;;5.00;3.40;;;;;;;;;;5053748;28;20171;-86
2021/06/01 13:38:52;;;;;;;4.15;3.60;;;;;;;;;;5052250;28;20207;-85
2021/06/01 13:46:41;;;;;;;6.57;3.58;;;;;;;;;;5052963;28;20296;-85
2021/06/01 13:49:29;;;;;;;4.70;3.90;;;;;;;;;;5053468;28;20338;-85
2021/06/01 13:59:53;;;;;;;8.10;4.00;;;;;;;;;;5057124;28;20215;-86
2021/06/01 14:21:24;;;;;;;4.67;3.93;;;;;;;;;;5063512;28;20580;-84
2021/06/01 15:28:56;;;;;;;4.63;4.10;;;;;;;;;;5055663;28;20171;-86
2021/06/01 16:12:16;;;;;;;5.47;4.60;;;;;;;;;;5054407;28;20170;-87
2021/06/01 16:23:00;;;;;;;7.33;4.33;;;;;;;;;;5054638;28;20229;-85
2021/06/01 17:05:53;;;;;;;8.83;4.97;;;;;;;;;;5054191;28;20653;-84
2021/06/01 17:13:29;;;;;;;47.23;33.23;;;;;;;;;;5053696;28;20172;-86
2021/06/01 17:15:55;;;;;;;55.70;41.63;;;;;;;;;;5053606;28;20512;-87
2021/06/01 17:24:17;;;;;;;26.93;23.47;;;;;;;;;;5051716;28;20341;-86
2021/06/01 17:34:58;;;;;;;12.83;8.03;;;;;;;;;;5044129;28;20214;-85
2021/06/01 17:37:24;;;;;;;10.97;9.03;;;;;;;;;;5042694;28;20180;-87
2021/06/01 17:39:49;;;;;;;57.30;39.83;;;;;;;;;;5042560;28;20200;-86
2021/06/01 17:42:16;;;;;;;96.40;82.43;;;;;;;;;;5044065;28;20172;-88
2021/06/01 17:44:42;;;;;;;43.77;38.93;;;;;;;;;;5042417;28;20512;-88
2021/06/01 17:47:11;;;;;;;91.93;81.53;;;;;;;;;;5041279;28;20231;-87
2021/06/01 17:49:36;;;;;;;83.87;74.67;;;;;;;;;;5044600;28;20180;-85
2021/06/01 17:52:02;;;;;;;99.97;90.03;;;;;;;;;;5042386;28;20191;-84
2021/06/01 17:54:28;;;;;;;48.23;43.17;;;;;;;;;;5040756;28;20180;-83
2021/06/01 17:56:54;;;;;;;36.60;33.07;;;;;;;;;;5052296;28;20614;-83
2021/06/01 17:59:20;;;;;;;19.00;16.97;;;;;;;;;;5041356;28;20168;-83
2021/06/01 18:01:45;;;;;;;19.47;12.70;;;;;;;;;;5042058;28;20517;-84
2021/06/01 18:04:13;;;;;;;15.67;14.10;;;;;;;;;;5046501;28;20180;-83
2021/06/01 18:06:46;;;;;;;16.23;11.63;;;;;;;;;;5045151;28;20608;-84
2021/06/01 18:09:37;;;;;;;12.20;10.33;;;;;;;;;;5041082;28;20199;-86
2021/06/01 18:37:03;;;;;;;17.23;7.97;;;;;;;;;;5053869;28;20622;-87
2021/06/01 19:01:25;;;;;;;18.30;11.80;;;;;;;;;;5047055;28;20214;-86
2021/06/01 19:21:21;;;;;;;20.57;10.00;;;;;;;;;;5045930;28;20644;-85
2021/06/01 19:28:47;;;;;;;15.63;9.97;;;;;;;;;;5054484;28;20163;-84
2021/06/01 19:50:31;;;;;;;25.77;15.53;;;;;;;;;;5043874;28;20199;-86
2021/06/01 19:52:57;;;;;;;33.67;18.23;;;;;;;;;;5044009;28;20169;-86
2021/06/01 19:55:23;;;;;;;29.17;17.73;;;;;;;;;;5045918;28;20528;-85
2021/06/01 19:57:49;;;;;;;26.47;16.77;;;;;;;;;;5043535;28;20291;-84
2021/06/01 20:00:15;;;;;;;26.57;17.27;;;;;;;;;;5043511;28;20290;-84
2021/06/01 20:02:40;;;;;;;27.67;17.23;;;;;;;;;;5044969;28;20187;-84
2021/06/01 20:05:13;;;;;;;29.27;17.20;;;;;;;;;;5045984;28;20173;-85
2021/06/01 20:07:39;;;;;;;32.67;17.50;;;;;;;;;;5043361;28;20175;-85
2021/06/01 20:10:05;;;;;;;27.23;16.97;;;;;;;;;;5045338;28;20171;-85
2021/06/01 20:12:31;;;;;;;24.43;16.23;;;;;;;;;;5044236;28;20179;-84
2021/06/01 20:14:57;;;;;;;25.37;16.37;;;;;;;;;;5043712;28;20171;-84
2021/06/01 20:17:22;;;;;;;25.37;15.63;;;;;;;;;;5051448;28;20176;-85
2021/06/01 20:19:51;;;;;;;24.80;15.27;;;;;;;;;;5054226;28;20195;-85
2021/06/01 20:22:16;;;;;;;24.77;16.53;;;;;;;;;;5053974;28;20184;-86
2021/06/01 20:24:42;;;;;;;23.03;16.27;;;;;;;;;;5054400;28;20172;-85
2021/06/01 20:27:08;;;;;;;21.07;16.23;;;;;;;;;;5053303;28;20176;-86
2021/06/01 20:29:34;;;;;;;23.17;14.93;;;;;;;;;;5054051;28;20179;-85
2021/06/01 20:34:49;;;;;;;18.97;14.47;;;;;;;;;;5053623;28;20178;-84
2021/06/01 20:37:14;;;;;;;24.13;15.73;;;;;;;;;;5052994;28;20556;-85
2021/06/01 20:39:44;;;;;;;22.67;15.87;;;;;;;;;;5052230;28;20174;-85
2021/06/01 20:42:09;;;;;;;22.77;14.80;;;;;;;;;;5052372;28;20229;-85
2021/06/01 20:44:35;;;;;;;18.70;12.97;;;;;;;;;;5050631;28;20176;-84
2021/06/01 20:47:02;;;;;;;23.43;16.10;;;;;;;;;;5053707;28;20318;-84
2021/06/01 20:49:27;;;;;;;21.60;15.63;;;;;;;;;;5052282;28;20168;-85
2021/06/01 20:51:53;;;;;;;22.30;15.10;;;;;;;;;;5052991;28;20221;-85
2021/06/01 20:54:18;;;;;;;21.67;14.20;;;;;;;;;;5053116;28;20175;-84
2021/06/01 20:56:44;;;;;;;21.60;14.30;;;;;;;;;;5052522;28;20258;-84
2021/06/01 20:59:10;;;;;;;21.13;14.43;;;;;;;;;;5053936;28;20523;-84
2021/06/01 21:01:35;;;;;;;19.77;14.20;;;;;;;;;;5052662;28;20203;-83
2021/06/01 21:04:01;;;;;;;19.50;13.43;;;;;;;;;;5054069;28;20564;-85
2021/06/01 21:06:28;;;;;;;19.60;13.33;;;;;;;;;;5051962;28;20211;-83
2021/06/01 21:08:54;;;;;;;18.83;13.37;;;;;;;;;;5053734;28;20203;-84
2021/06/01 21:11:20;;;;;;;21.43;13.87;;;;;;;;;;5053344;28;20175;-84
2021/06/01 21:13:46;;;;;;;19.63;13.43;;;;;;;;;;5054019;28;20671;-83
2021/06/01 21:16:11;;;;;;;20.70;13.57;;;;;;;;;;5053510;28;20176;-85
2021/06/01 21:18:37;;;;;;;19.83;13.57;;;;;;;;;;5053912;28;20211;-85
2021/06/01 21:21:04;;;;;;;23.57;13.17;;;;;;;;;;5053696;28;20626;-85
2021/06/01 21:23:30;;;;;;;19.13;13.77;;;;;;;;;;5053587;28;20254;-84
2021/06/01 21:25:56;;;;;;;17.90;13.70;;;;;;;;;;5052442;28;20250;-84